Time;durP1;ratioP1;P1;durP2;ratioP2;P2;SDS_P1;SDS_P2;PMS_P1;PMS_P2;Temp;Humidity;BMP_temperature;BMP_pressure;BME280_temperature;BME280_humidity;BME280_pressure;Samples;Min_cycle;Max_cycle;Signal;HPM_P1;HPM_P2
2024/01/26 00:01:25;;;;;;;0.60;0.60;;;;;;;11.35;100.00;101246.69;5021738;28;20076;-69
2024/01/26 00:03:51;;;;;;;0.60;0.60;;;;;;;11.51;100.00;101269.53;5007019;28;20042;-70
2024/01/26 00:06:16;;;;;;;0.60;0.60;;;;;;;11.47;100.00;101286.44;4992196;28;20050;-69
2024/01/26 00:08:42;;;;;;;0.60;0.60;;;;;;;11.46;100.00;101273.16;4988087;28;20032;-70
2024/01/26 00:11:16;;;;;;;0.60;0.60;;;;;;;11.25;100.00;101233.56;4988626;28;20053;-69
2024/01/26 00:13:42;;;;;;;0.52;0.52;;;;;;;11.46;100.00;101266.06;4988023;28;20034;-69
2024/01/26 00:16:08;;;;;;;0.70;0.70;;;;;;;11.50;100.00;101264.19;4987180;28;20034;-70
2024/01/26 00:18:34;;;;;;;0.50;0.50;;;;;;;11.52;100.00;101265.94;4986206;28;20062;-69
2024/01/26 00:20:59;;;;;;;0.70;0.70;;;;;;;11.48;100.00;101269.53;4986215;28;20396;-69
2024/01/26 00:23:25;;;;;;;0.55;0.55;;;;;;;11.45;100.00;101272.25;4986869;28;20034;-69
2024/01/26 00:25:50;;;;;;;0.60;0.60;;;;;;;11.47;100.00;101272.25;4987554;28;20019;-70
2024/01/26 00:28:15;;;;;;;0.55;0.55;;;;;;;11.47;100.00;101266.91;4986977;28;20030;-70
2024/01/26 00:30:41;;;;;;;0.50;0.50;;;;;;;11.48;100.00;101268.69;4986790;28;20775;-69
2024/01/26 00:33:06;;;;;;;0.60;0.60;;;;;;;11.49;100.00;101271.31;4987271;28;20030;-70
2024/01/26 00:35:32;;;;;;;0.60;0.60;;;;;;;11.52;100.00;101270.38;4986500;28;20031;-69
2024/01/26 00:37:57;;;;;;;0.60;0.60;;;;;;;11.48;100.00;101266.88;4986351;28;20025;-70
2024/01/26 00:40:23;;;;;;;0.60;0.60;;;;;;;11.37;100.00;101257.31;4987533;28;20073;-69
2024/01/26 00:42:48;;;;;;;0.50;0.50;;;;;;;11.48;100.00;101271.34;4989034;28;20029;-70
2024/01/26 00:45:16;;;;;;;0.60;0.60;;;;;;;11.46;100.00;101266.06;4988691;28;20040;-70
2024/01/26 00:47:41;;;;;;;0.60;0.60;;;;;;;11.45;100.00;101261.59;4989186;28;20377;-69
2024/01/26 00:50:07;;;;;;;0.60;0.60;;;;;;;11.47;100.00;101261.59;4991016;28;20037;-69
2024/01/26 00:52:32;;;;;;;0.60;0.60;;;;;;;11.47;100.00;101266.91;4991008;28;20559;-69
2024/01/26 00:54:58;;;;;;;0.60;0.60;;;;;;;11.47;100.00;101253.59;4988794;28;20042;-70
2024/01/26 00:57:24;;;;;;;0.60;0.60;;;;;;;11.49;100.00;101266.00;4990723;28;20836;-69
2024/01/26 00:59:49;;;;;;;0.60;0.60;;;;;;;11.49;100.00;101268.66;4988813;28;20038;-69
2024/01/26 01:02:15;;;;;;;0.60;0.60;;;;;;;11.50;100.00;101256.19;4990949;28;20084;-69
2024/01/26 01:04:40;;;;;;;0.60;0.60;;;;;;;11.52;100.00;101257.06;4990775;28;20023;-69
2024/01/26 01:07:06;;;;;;;0.70;0.70;;;;;;;11.53;100.00;101256.16;5002873;28;20042;-69
2024/01/26 01:09:32;;;;;;;0.60;0.60;;;;;;;11.38;100.00;101243.09;4993154;28;20059;-69
2024/01/26 01:11:57;;;;;;;0.65;0.65;;;;;;;11.53;100.00;101262.34;5010328;28;20026;-69
2024/01/26 01:14:23;;;;;;;0.60;0.60;;;;;;;11.35;100.00;101229.84;4994454;28;20084;-69
2024/01/26 01:16:50;;;;;;;0.60;0.60;;;;;;;11.55;100.00;101260.56;5010481;28;20388;-69
2024/01/26 01:19:15;;;;;;;0.60;0.60;;;;;;;11.55;100.00;101255.22;5010038;28;20056;-69
2024/01/26 01:21:41;;;;;;;0.57;0.57;;;;;;;11.39;100.00;101220.88;5007913;28;20788;-70
2024/01/26 01:24:06;;;;;;;0.60;0.60;;;;;;;11.49;100.00;101242.03;5008577;28;20503;-69
2024/01/26 01:26:32;;;;;;;0.68;0.68;;;;;;;11.47;100.00;101240.28;5008904;28;20369;-69
2024/01/26 01:28:57;;;;;;;0.70;0.70;;;;;;;11.34;100.00;101214.75;5009870;28;20391;-69
2024/01/26 01:31:23;;;;;;;0.60;0.60;;;;;;;11.42;100.00;101236.78;5009577;28;20440;-69
2024/01/26 01:33:48;;;;;;;0.60;0.60;;;;;;;11.43;100.00;101225.25;5008583;28;20117;-70
2024/01/26 01:36:14;;;;;;;0.63;0.63;;;;;;;11.41;100.00;101237.72;4991367;28;20042;-71
2024/01/26 01:38:39;;;;;;;0.60;0.60;;;;;;;11.44;100.00;101235.88;5010316;28;20053;-70
2024/01/26 01:41:04;;;;;;;0.60;0.60;;;;;;;11.47;100.00;101234.94;5009912;28;20410;-69
2024/01/26 01:43:31;;;;;;;0.57;0.57;;;;;;;11.49;100.00;101236.69;5007654;28;20102;-69
2024/01/26 01:45:56;;;;;;;0.60;0.60;;;;;;;11.43;100.00;101225.25;5009343;28;20022;-69
2024/01/26 01:48:22;;;;;;;0.60;0.60;;;;;;;11.48;100.00;101236.72;4991324;28;20377;-69
2024/01/26 01:50:48;;;;;;;0.60;0.60;;;;;;;11.27;100.00;101205.97;5009073;28;20616;-69
2024/01/26 01:53:14;;;;;;;0.60;0.60;;;;;;;11.35;100.00;101235.16;5009744;28;20030;-70
2024/01/26 01:55:42;;;;;;;0.60;0.60;;;;;;;11.10;100.00;101186.75;4992147;28;20070;-69
2024/01/26 01:58:08;;;;;;;0.70;0.70;;;;;;;11.45;100.00;101220.78;4989278;28;20076;-69
2024/01/26 02:00:37;;;;;;;0.70;0.70;;;;;;;11.24;100.00;101192.72;5009480;28;20491;-70
2024/01/26 02:03:02;;;;;;;0.60;0.60;;;;;;;11.46;100.00;101225.19;4993585;28;20026;-70
2024/01/26 02:05:28;;;;;;;0.70;0.70;;;;;;;11.41;100.00;101208.41;4991735;28;20511;-69
2024/01/26 02:07:53;;;;;;;0.60;0.60;;;;;;;11.43;100.00;101223.44;4991697;28;20042;-71
2024/01/26 02:10:19;;;;;;;0.60;0.60;;;;;;;11.36;100.00;101215.59;5009834;28;20583;-70
2024/01/26 02:12:45;;;;;;;0.60;0.60;;;;;;;11.12;100.00;101178.72;5009399;28;20137;-70
2024/01/26 02:15:10;;;;;;;0.70;0.70;;;;;;;11.35;100.00;101208.53;5008620;28;20036;-69
2024/01/26 02:17:36;;;;;;;0.60;0.60;;;;;;;11.33;100.00;101205.00;4990149;28;20499;-69
2024/01/26 02:20:06;;;;;;;0.60;0.60;;;;;;;11.38;100.00;101216.47;5008145;28;20043;-69
2024/01/26 02:22:32;;;;;;;0.63;0.63;;;;;;;11.36;100.00;101228.91;4991444;28;20033;-69
2024/01/26 02:24:58;;;;;;;0.70;0.70;;;;;;;11.40;100.00;101217.31;5009701;28;20435;-69
2024/01/26 02:27:23;;;;;;;0.60;0.60;;;;;;;11.37;100.00;101222.69;5008789;28;20049;-70
2024/01/26 02:29:49;;;;;;;0.60;0.60;;;;;;;11.31;100.00;101220.13;5008569;28;20588;-69
2024/01/26 02:32:15;;;;;;;0.70;0.70;;;;;;;11.21;100.00;101199.88;5009001;28;20026;-69
2024/01/26 02:34:41;;;;;;;0.60;0.60;;;;;;;11.43;100.00;101217.25;5024508;28;20506;-70
2024/01/26 02:37:06;;;;;;;0.60;0.60;;;;;;;11.48;100.00;101216.25;5003900;28;20033;-69
2024/01/26 02:39:33;;;;;;;0.60;0.60;;;;;;;11.46;100.00;101209.22;5009059;28;20048;-70
2024/01/26 02:41:59;;;;;;;0.60;0.60;;;;;;;11.46;100.00;101212.78;5008871;28;20161;-70
2024/01/26 02:44:24;;;;;;;0.60;0.60;;;;;;;11.49;100.00;101217.16;5009188;28;20105;-69
2024/01/26 02:46:50;;;;;;;0.60;0.60;;;;;;;11.41;100.00;101203.09;5009515;28;20506;-70
2024/01/26 02:49:16;;;;;;;0.60;0.60;;;;;;;11.34;100.00;101196.09;5009437;28;20033;-70
2024/01/26 02:51:41;;;;;;;0.60;0.60;;;;;;;11.52;100.00;101214.44;5009722;28;20045;-70
2024/01/26 02:54:07;;;;;;;0.60;0.60;;;;;;;11.52;100.00;101223.31;5009661;28;20017;-70
2024/01/26 02:56:33;;;;;;;0.70;0.70;;;;;;;11.53;100.00;101216.19;5006687;28;20543;-70
2024/01/26 02:58:58;;;;;;;0.60;0.60;;;;;;;11.37;100.00;101196.03;5005995;28;20128;-70
2024/01/26 03:01:24;;;;;;;0.70;0.70;;;;;;;11.51;100.00;101216.25;4989908;28;20056;-69
2024/01/26 03:03:49;;;;;;;0.70;0.70;;;;;;;11.52;100.00;101211.75;5008278;28;20452;-70
2024/01/26 03:06:14;;;;;;;0.63;0.63;;;;;;;11.57;100.00;101216.13;5007158;28;20052;-70
2024/01/26 03:08:40;;;;;;;0.68;0.68;;;;;;;11.56;100.00;101213.47;5008523;28;20041;-69
2024/01/26 03:11:06;;;;;;;0.60;0.60;;;;;;;11.58;100.00;101222.34;5007957;28;20030;-70
2024/01/26 03:13:31;;;;;;;0.55;0.55;;;;;;;11.61;100.00;101224.94;5008299;28;20034;-69
2024/01/26 03:15:57;;;;;;;0.70;0.70;;;;;;;11.48;100.00;101204.75;5007460;28;20841;-69
2024/01/26 03:18:22;;;;;;;0.60;0.60;;;;;;;11.63;100.00;101224.03;5006838;28;20037;-69
2024/01/26 03:20:48;;;;;;;0.60;0.60;;;;;;;11.46;100.00;101193.22;5008319;28;20022;-69
2024/01/26 03:23:14;;;;;;;0.60;0.60;;;;;;;11.66;100.00;101225.78;5007230;28;20077;-70
2024/01/26 03:25:40;;;;;;;0.60;0.60;;;;;;;11.60;100.00;101221.38;5007563;28;20049;-70
2024/01/26 03:28:06;;;;;;;0.60;0.60;;;;;;;11.45;100.00;101194.16;5007765;28;20030;-69
2024/01/26 03:30:34;;;;;;;0.60;0.60;;;;;;;11.61;100.00;101214.28;5007554;28;20029;-70
2024/01/26 03:33:00;;;;;;;0.60;0.60;;;;;;;11.49;100.00;101195.84;5007418;28;20140;-69
2024/01/26 03:35:27;;;;;;;0.50;0.50;;;;;;;11.58;100.00;101219.66;5006882;28;20116;-69
2024/01/26 03:37:52;;;;;;;0.60;0.60;;;;;;;11.43;100.00;101190.63;5006612;28;20392;-69
2024/01/26 03:40:18;;;;;;;0.50;0.50;;;;;;;11.57;100.00;101221.44;5009701;28;20029;-69
2024/01/26 03:42:43;;;;;;;0.60;0.60;;;;;;;11.54;100.00;101217.94;5009326;28;20045;-69
2024/01/26 03:45:09;;;;;;;0.60;0.60;;;;;;;11.50;100.00;101221.56;5008316;28;20468;-68
2024/01/26 03:47:34;;;;;;;0.60;0.60;;;;;;;11.53;100.00;101227.72;5009333;28;20025;-69
2024/01/26 03:50:00;;;;;;;0.60;0.60;;;;;;;11.35;100.00;101209.38;5008822;28;20021;-68
2024/01/26 03:52:25;;;;;;;0.60;0.60;;;;;;;11.46;100.00;101222.53;5006924;28;20480;-68
2024/01/26 03:54:51;;;;;;;0.68;0.68;;;;;;;11.46;100.00;101227.88;4973553;28;20030;-68
2024/01/26 03:57:16;;;;;;;0.60;0.60;;;;;;;11.42;100.00;101221.69;4987694;28;20089;-67
2024/01/26 03:59:41;;;;;;;0.70;0.70;;;;;;;11.39;100.00;101215.53;4999146;28;20075;-67
2024/01/26 04:02:07;;;;;;;0.60;0.60;;;;;;;11.21;100.00;101189.22;5007320;28;20029;-68
2024/01/26 04:04:32;;;;;;;0.60;0.60;;;;;;;11.35;100.00;101211.19;5006995;28;20032;-67
2024/01/26 04:06:58;;;;;;;0.60;0.60;;;;;;;11.38;100.00;101208.47;5007944;28;20054;-67
2024/01/26 04:09:23;;;;;;;0.60;0.60;;;;;;;11.36;100.00;101205.84;5005991;28;20900;-68
2024/01/26 04:11:48;;;;;;;0.70;0.70;;;;;;;11.04;100.00;101160.19;5007992;28;20029;-68
2024/01/26 04:14:14;;;;;;;0.60;0.60;;;;;;;11.36;100.00;101208.50;4988365;28;20041;-67
2024/01/26 04:16:39;;;;;;;0.60;0.60;;;;;;;11.35;100.00;101208.53;5006383;28;20026;-68
2024/01/26 04:19:05;;;;;;;0.60;0.60;;;;;;;11.26;100.00;101208.66;4989034;28;20069;-67
2024/01/26 04:21:31;;;;;;;0.60;0.60;;;;;;;11.03;100.00;101179.75;5007020;28;20092;-67
2024/01/26 04:23:56;;;;;;;0.65;0.65;;;;;;;11.20;100.00;101206.13;5006711;28;20109;-68
2024/01/26 04:26:22;;;;;;;0.50;0.50;;;;;;;11.22;100.00;101212.31;5007002;28;20475;-68
2024/01/26 04:28:48;;;;;;;0.60;0.60;;;;;;;11.01;100.00;101175.34;5006436;28;20079;-68
2024/01/26 04:31:14;;;;;;;0.60;0.60;;;;;;;11.25;100.00;101223.75;5006630;28;20414;-68
2024/01/26 04:33:39;;;;;;;0.60;0.60;;;;;;;11.21;100.00;101213.19;5006957;28;20030;-68
2024/01/26 04:36:08;;;;;;;0.60;0.60;;;;;;;11.21;100.00;101202.53;5005906;28;20125;-68
2024/01/26 04:38:36;;;;;;;0.60;0.60;;;;;;;11.26;100.00;101224.63;5006503;28;20033;-68
2024/01/26 04:41:03;;;;;;;0.60;0.60;;;;;;;11.26;100.00;101220.22;5007786;28;20083;-68
2024/01/26 04:43:29;;;;;;;0.60;0.60;;;;;;;11.23;100.00;101206.94;5005178;28;20104;-68
2024/01/26 04:45:55;;;;;;;0.68;0.68;;;;;;;11.17;100.00;101208.84;5008595;28;20097;-68
2024/01/26 04:48:20;;;;;;;0.70;0.70;;;;;;;11.26;100.00;101214.00;5007225;28;20132;-68
2024/01/26 04:50:46;;;;;;;0.60;0.60;;;;;;;11.30;100.00;101205.91;5008317;28;20029;-68
2024/01/26 04:53:11;;;;;;;0.60;0.60;;;;;;;11.26;100.00;101182.03;5008697;28;20030;-69
2024/01/26 04:55:37;;;;;;;0.70;0.70;;;;;;;11.41;100.00;101203.09;5007709;28;20030;-69
2024/01/26 04:58:02;;;;;;;0.60;0.60;;;;;;;11.37;100.00;101190.72;5006309;28;20302;-68
2024/01/26 05:00:28;;;;;;;0.70;0.70;;;;;;;11.40;100.00;101201.34;5006672;28;20108;-68
2024/01/26 05:02:53;;;;;;;0.60;0.60;;;;;;;11.37;100.00;101193.38;4998529;28;20424;-68
2024/01/26 05:05:19;;;;;;;0.60;0.60;;;;;;;11.21;100.00;101171.47;5001988;28;20030;-68
2024/01/26 05:07:44;;;;;;;0.50;0.50;;;;;;;11.34;100.00;101182.78;4987093;28;20046;-68
2024/01/26 05:10:11;;;;;;;0.60;0.60;;;;;;;11.37;100.00;101185.38;5006025;28;20033;-69
2024/01/26 05:12:37;;;;;;;0.70;0.70;;;;;;;11.13;100.00;101167.16;5005164;28;20065;-69
2024/01/26 05:15:02;;;;;;;0.60;0.60;;;;;;;11.39;100.00;101180.91;4994900;28;20030;-69
2024/01/26 05:17:28;;;;;;;0.68;0.68;;;;;;;11.44;100.00;101187.03;4987702;28;20396;-68
2024/01/26 05:19:53;;;;;;;0.60;0.60;;;;;;;11.42;100.00;101188.84;4981091;28;20042;-69
2024/01/26 05:22:19;;;;;;;0.60;0.60;;;;;;;11.22;100.00;101170.53;5008738;28;20091;-69
2024/01/26 05:24:45;;;;;;;0.70;0.70;;;;;;;11.40;100.00;101188.03;4997605;28;20030;-69
2024/01/26 05:27:10;;;;;;;0.70;0.70;;;;;;;11.44;100.00;101195.03;5007764;28;20021;-69
2024/01/26 05:29:36;;;;;;;0.70;0.70;;;;;;;11.44;100.00;101189.72;5007262;28;20091;-69
2024/01/26 05:32:02;;;;;;;0.70;0.70;;;;;;;11.44;100.00;101192.38;5008426;28;20033;-69
2024/01/26 05:34:27;;;;;;;0.60;0.60;;;;;;;11.35;100.00;101201.38;5010629;28;20037;-69
2024/01/26 05:36:52;;;;;;;0.60;0.60;;;;;;;11.46;100.00;101191.44;5011838;28;20021;-69
2024/01/26 05:39:18;;;;;;;0.60;0.60;;;;;;;11.50;100.00;101198.47;4991557;28;20364;-69
2024/01/26 05:41:43;;;;;;;0.60;0.60;;;;;;;11.50;100.00;101205.56;5011649;28;20030;-69
2024/01/26 05:44:09;;;;;;;0.60;0.60;;;;;;;11.49;100.00;101206.50;4987584;28;20044;-69
2024/01/26 05:46:34;;;;;;;0.60;0.60;;;;;;;11.18;100.00;101170.63;5008017;28;20826;-69
2024/01/26 05:49:00;;;;;;;0.70;0.70;;;;;;;11.42;100.00;101207.50;4991718;28;20091;-69
2024/01/26 05:51:25;;;;;;;0.70;0.70;;;;;;;11.40;100.00;101212.84;5009315;28;20026;-69
2024/01/26 05:53:52;;;;;;;0.60;0.60;;;;;;;11.37;100.00;101217.34;4990363;28;20037;-69
2024/01/26 05:56:18;;;;;;;0.70;0.70;;;;;;;11.37;100.00;101218.22;5004673;28;20134;-69
2024/01/26 05:58:44;;;;;;;0.60;0.60;;;;;;;11.36;100.00;101223.59;5009078;28;20032;-70
2024/01/26 06:01:09;;;;;;;0.68;0.68;;;;;;;11.27;100.00;101216.63;5009164;28;20442;-69
2024/01/26 06:03:35;;;;;;;0.60;0.60;;;;;;;11.28;100.00;101220.19;4992502;28;20076;-69
2024/01/26 06:06:00;;;;;;;0.60;0.60;;;;;;;11.12;100.00;101202.69;5009208;28;20768;-69
2024/01/26 06:08:26;;;;;;;0.60;0.60;;;;;;;11.24;100.00;101231.78;5009512;28;20021;-69
2024/01/26 06:10:56;;;;;;;0.65;0.65;;;;;;;11.22;100.00;101218.47;5009150;28;20495;-69
2024/01/26 06:13:22;;;;;;;0.60;0.60;;;;;;;11.24;100.00;101238.00;5010765;28;20092;-69
2024/01/26 06:15:48;;;;;;;0.68;0.68;;;;;;;11.26;100.00;101224.63;5010067;28;20037;-69
2024/01/26 06:18:13;;;;;;;0.60;0.60;;;;;;;11.22;100.00;101220.28;5010964;28;20034;-69
2024/01/26 06:20:39;;;;;;;0.60;0.60;;;;;;;11.23;100.00;101235.34;5010197;28;20072;-69
2024/01/26 06:23:04;;;;;;;0.60;0.60;;;;;;;11.18;100.00;101235.44;4991493;28;20072;-69
2024/01/26 06:25:31;;;;;;;0.70;0.70;;;;;;;11.20;100.00;101251.38;5009301;28;20423;-69
2024/01/26 06:27:58;;;;;;;0.60;0.60;;;;;;;11.04;100.00;101212.56;5009167;28;20496;-69
2024/01/26 06:30:23;;;;;;;0.70;0.70;;;;;;;11.14;100.00;101239.03;5006529;28;20034;-69
2024/01/26 06:32:48;;;;;;;0.60;0.60;;;;;;;11.10;100.00;101237.34;4996360;28;20048;-69
2024/01/26 06:35:14;;;;;;;0.70;0.70;;;;;;;11.05;100.00;101235.63;5008733;28;20030;-69
2024/01/26 06:37:40;;;;;;;0.70;0.70;;;;;;;11.03;100.00;101232.09;5010541;28;20034;-69
2024/01/26 06:40:15;;;;;;;0.60;0.60;;;;;;;11.02;100.00;101236.53;5010767;28;20191;-69
2024/01/26 06:42:41;;;;;;;0.70;0.70;;;;;;;10.99;100.00;101230.41;5004084;28;20026;-69
2024/01/26 06:45:12;;;;;;;0.70;0.70;;;;;;;10.97;100.00;101237.53;5002042;28;20034;-69
2024/01/26 06:47:38;;;;;;;0.60;0.60;;;;;;;10.92;100.00;101234.94;4987304;28;20064;-69
2024/01/26 06:50:04;;;;;;;0.70;0.70;;;;;;;10.93;100.00;101231.38;5009100;28;20022;-69
2024/01/26 06:52:30;;;;;;;0.70;0.70;;;;;;;10.80;100.00;101207.63;5010576;28;20088;-69
2024/01/26 06:54:56;;;;;;;0.60;0.60;;;;;;;10.92;100.00;101228.75;5008143;28;20109;-69
2024/01/26 06:57:21;;;;;;;0.63;0.63;;;;;;;10.79;100.00;101206.72;4990926;28;20120;-67
2024/01/26 06:59:47;;;;;;;0.60;0.60;;;;;;;10.88;100.00;101219.91;4991500;28;20026;-68
2024/01/26 07:02:12;;;;;;;0.68;0.68;;;;;;;10.74;100.00;101203.25;5007970;28;20270;-68
2024/01/26 07:04:37;;;;;;;0.60;0.60;;;;;;;10.87;100.00;101209.28;5007968;28;20456;-67
2024/01/26 07:07:03;;;;;;;0.70;0.70;;;;;;;10.83;100.00;101205.78;5008363;28;20578;-68
2024/01/26 07:09:28;;;;;;;0.70;0.70;;;;;;;10.82;100.00;101212.03;5008873;28;20432;-68
2024/01/26 07:11:54;;;;;;;0.63;0.63;;;;;;;10.67;100.00;101190.97;5009603;28;20037;-68
2024/01/26 07:14:19;;;;;;;0.70;0.70;;;;;;;10.54;100.00;101163.63;5008016;28;20040;-67
2024/01/26 07:16:46;;;;;;;0.70;0.70;;;;;;;10.68;100.00;101191.81;5008644;28;20052;-68
2024/01/26 07:19:12;;;;;;;0.60;0.60;;;;;;;10.76;100.00;101205.91;4995419;28;20037;-67
2024/01/26 07:21:37;;;;;;;0.70;0.70;;;;;;;10.85;100.00;101205.75;5007583;28;20030;-68
2024/01/26 07:24:03;;;;;;;0.63;0.63;;;;;;;10.89;100.00;101207.50;5007503;28;20026;-69
2024/01/26 07:26:28;;;;;;;0.70;0.70;;;;;;;10.93;100.00;101207.41;4990260;28;20059;-69
2024/01/26 07:28:53;;;;;;;0.60;0.60;;;;;;;10.83;100.00;101175.63;5007877;28;20026;-69
2024/01/26 07:31:19;;;;;;;0.70;0.70;;;;;;;10.98;100.00;101200.25;4990345;28;20025;-70
2024/01/26 07:33:44;;;;;;;0.70;0.70;;;;;;;10.99;100.00;101196.66;5008287;28;20045;-70
2024/01/26 07:36:10;;;;;;;0.70;0.70;;;;;;;11.00;100.00;101193.13;4997924;28;20492;-69
2024/01/26 07:38:35;;;;;;;0.65;0.65;;;;;;;11.06;100.00;101179.69;5004687;28;20033;-69
2024/01/26 07:41:01;;;;;;;0.60;0.60;;;;;;;11.06;100.00;101178.81;4986237;28;20110;-70
2024/01/26 07:43:26;;;;;;;0.60;0.60;;;;;;;10.91;100.00;101132.03;5008216;28;20073;-70
2024/01/26 07:45:51;;;;;;;0.60;0.60;;;;;;;11.13;100.00;101160.06;5003641;28;20030;-70
2024/01/26 07:48:17;;;;;;;0.70;0.70;;;;;;;11.20;100.00;101155.50;4991746;28;20129;-70
2024/01/26 07:50:43;;;;;;;0.70;0.70;;;;;;;10.96;100.00;101113.31;4994572;28;20148;-70
2024/01/26 07:53:09;;;;;;;0.70;0.70;;;;;;;11.06;100.00;101106.91;5005633;28;20115;-69
2024/01/26 07:55:35;;;;;;;0.70;0.70;;;;;;;11.39;100.00;101157.81;5006139;28;20539;-69
2024/01/26 07:58:01;;;;;;;0.60;0.60;;;;;;;11.37;100.00;101146.31;5006344;28;20128;-69
2024/01/26 08:00:27;;;;;;;0.60;0.60;;;;;;;11.43;100.00;101142.66;5012100;28;20053;-69
2024/01/26 08:02:52;;;;;;;0.60;0.60;;;;;;;11.50;100.00;101130.97;5008093;28;20490;-70
2024/01/26 08:05:18;;;;;;;0.70;0.70;;;;;;;11.55;100.00;101126.44;5018721;28;20044;-70
2024/01/26 08:07:43;;;;;;;0.70;0.70;;;;;;;11.24;100.00;101085.28;5005643;28;20049;-69
2024/01/26 08:10:09;;;;;;;0.60;0.60;;;;;;;11.46;100.00;101099.97;5007906;28;20072;-69
2024/01/26 08:12:35;;;;;;;0.60;0.60;;;;;;;11.61;100.00;101121.00;5007056;28;20049;-69
2024/01/26 08:15:01;;;;;;;0.65;0.65;;;;;;;11.75;100.00;101130.53;5009649;28;20029;-67
2024/01/26 08:17:27;;;;;;;0.60;0.60;;;;;;;11.71;100.00;101128.81;4982216;28;20115;-67
2024/01/26 08:19:53;;;;;;;0.60;0.60;;;;;;;11.60;100.00;101119.22;4998526;28;20068;-67
2024/01/26 08:22:18;;;;;;;0.70;0.70;;;;;;;11.77;100.00;101171.38;4989536;28;20046;-68
2024/01/26 08:24:44;;;;;;;0.60;0.60;;;;;;;11.84;100.00;101172.13;5008114;28;20281;-68
2024/01/26 08:27:10;;;;;;;0.60;0.60;;;;;;;11.63;100.00;101140.53;5008553;28;20034;-68
2024/01/26 08:29:36;;;;;;;0.65;0.65;;;;;;;11.85;100.00;101163.22;5006149;28;20081;-67
2024/01/26 08:32:01;;;;;;;0.60;0.60;;;;;;;11.70;100.00;101160.81;4999627;28;20034;-70
2024/01/26 08:34:26;;;;;;;0.60;0.60;;;;;;;11.87;100.00;101177.41;5002897;28;20042;-67
2024/01/26 08:36:52;;;;;;;0.60;0.60;;;;;;;11.84;100.00;101174.78;5006744;28;20037;-68
2024/01/26 08:39:18;;;;;;;0.60;0.60;;;;;;;11.74;100.00;101135.88;4979915;28;20033;-68
2024/01/26 08:41:43;;;;;;;0.60;0.60;;;;;;;11.91;100.00;101171.06;5011277;28;20030;-68
2024/01/26 08:44:12;;;;;;;0.50;0.50;;;;;;;11.89;100.00;101164.91;5005822;28;20029;-68
2024/01/26 08:46:38;;;;;;;0.63;0.63;;;;;;;11.75;100.00;101138.53;5007684;28;20029;-68
2024/01/26 08:49:06;;;;;;;0.60;0.60;;;;;;;11.89;100.00;101144.44;5009722;28;20503;-68
2024/01/26 08:51:32;;;;;;;0.68;0.68;;;;;;;11.98;100.00;101154.06;5006043;28;20037;-67
2024/01/26 08:53:57;;;;;;;0.60;0.60;;;;;;;11.78;100.00;101124.25;5006199;28;20038;-68
2024/01/26 08:56:24;;;;;;;0.60;0.60;;;;;;;11.97;100.00;101152.31;5008397;28;20511;-68
2024/01/26 08:58:50;;;;;;;0.60;0.60;;;;;;;11.94;100.00;101153.22;5006071;28;20455;-68
2024/01/26 09:01:15;;;;;;;0.60;0.60;;;;;;;11.81;100.00;101129.53;5002004;28;20033;-68
2024/01/26 09:03:41;;;;;;;0.60;0.60;;;;;;;11.98;100.00;101147.88;5006920;28;20044;-68
2024/01/26 09:06:08;;;;;;;0.60;0.60;;;;;;;11.97;100.00;101152.31;4988726;28;20050;-67
2024/01/26 09:08:33;;;;;;;0.60;0.60;;;;;;;11.77;100.00;101117.16;4997603;28;20164;-67
2024/01/26 09:10:59;;;;;;;0.60;0.60;;;;;;;11.77;100.00;101111.84;5006352;28;20488;-67
2024/01/26 09:13:25;;;;;;;0.60;0.60;;;;;;;12.00;100.00;101146.91;4996175;28;20038;-67
2024/01/26 09:15:51;;;;;;;0.60;0.60;;;;;;;12.04;100.00;101147.72;4990305;28;20033;-68
2024/01/26 09:18:16;;;;;;;0.60;0.60;;;;;;;12.04;100.00;101148.63;4991291;28;20018;-68
2024/01/26 09:20:43;;;;;;;0.60;0.60;;;;;;;12.05;100.00;101146.81;4991168;28;20033;-69
2024/01/26 09:23:09;;;;;;;0.50;0.50;;;;;;;12.09;100.00;101141.41;4992412;28;20684;-69
2024/01/26 09:25:34;;;;;;;0.55;0.55;;;;;;;12.01;100.00;101121.97;4992393;28;20109;-69
2024/01/26 09:28:00;;;;;;;0.60;0.60;;;;;;;12.24;100.00;101135.72;4991101;28;20538;-69
2024/01/26 09:30:25;;;;;;;0.60;0.60;;;;;;;12.15;100.00;101119.91;4991535;28;20061;-69
2024/01/26 09:32:51;;;;;;;0.50;0.50;;;;;;;12.40;100.00;101136.28;4990428;28;20035;-69
2024/01/26 09:35:16;;;;;;;0.60;0.60;;;;;;;12.41;100.00;101138.00;4989111;28;20381;-69
2024/01/26 09:37:41;;;;;;;0.60;0.60;;;;;;;12.35;100.00;101131.03;4989931;28;20523;-69
2024/01/26 09:40:12;;;;;;;0.60;0.60;;;;;;;12.46;100.00;101146.78;4988543;28;20033;-69
2024/01/26 09:42:38;;;;;;;0.60;0.60;;;;;;;12.49;100.00;101144.94;4982901;28;20488;-69
2024/01/26 09:45:04;;;;;;;0.50;0.50;;;;;;;12.45;100.00;101140.59;4971184;28;20039;-69
2024/01/26 09:47:34;;;;;;;0.50;0.50;;;;;;;12.31;100.00;101121.34;4988110;28;20069;-69
2024/01/26 09:50:02;;;;;;;0.57;0.57;;;;;;;12.30;100.00;101114.25;4990175;28;20070;-69
2024/01/26 09:52:29;;;;;;;0.50;0.50;;;;;;;12.52;100.00;101120.84;4990610;28;20030;-69
2024/01/26 09:54:55;;;;;;;0.60;0.60;;;;;;;12.53;100.00;101135.09;4989633;28;20125;-69
2024/01/26 09:57:22;;;;;;;0.60;0.60;;;;;;;12.60;100.00;101120.69;4988063;28;20767;-69
2024/01/26 09:59:50;;;;;;;0.60;0.60;;;;;;;12.60;100.00;101126.88;4987237;28;20065;-69
2024/01/26 10:02:18;;;;;;;0.60;0.60;;;;;;;12.64;100.00;101136.59;4988831;28;20045;-69
2024/01/26 10:04:44;;;;;;;0.60;0.60;;;;;;;12.35;100.00;101069.69;4992049;28;20034;-69
2024/01/26 10:07:10;;;;;;;0.60;0.60;;;;;;;12.40;100.00;101069.56;5004642;28;20046;-69
2024/01/26 10:09:35;;;;;;;0.50;0.50;;;;;;;12.59;100.00;101101.13;4992158;28;20029;-69
2024/01/26 10:12:02;;;;;;;0.60;0.60;;;;;;;12.77;100.00;101137.16;5009113;28;20432;-69
2024/01/26 10:14:27;;;;;;;0.60;0.60;;;;;;;12.65;100.00;101108.13;5008956;28;20034;-69
2024/01/26 10:16:57;;;;;;;0.50;0.50;;;;;;;12.80;100.00;101131.78;5009835;28;20476;-68
2024/01/26 10:19:25;;;;;;;0.60;0.60;;;;;;;12.78;100.00;101134.47;4991241;28;20041;-69
2024/01/26 10:21:51;;;;;;;0.52;0.52;;;;;;;12.80;100.00;101137.97;5009605;28;20018;-69
2024/01/26 10:24:19;;;;;;;0.50;0.50;;;;;;;12.78;100.00;101133.59;5008260;28;20087;-69
2024/01/26 10:26:44;;;;;;;0.60;0.60;;;;;;;12.54;100.00;101089.69;5005896;28;20029;-69
2024/01/26 10:29:10;;;;;;;0.60;0.60;;;;;;;12.79;100.00;101136.25;5008246;28;20053;-69
2024/01/26 10:31:37;;;;;;;0.60;0.60;;;;;;;12.58;100.00;101099.38;5009563;28;20061;-69
2024/01/26 10:34:05;;;;;;;0.57;0.57;;;;;;;12.89;100.00;101142.22;4999505;28;20504;-69
2024/01/26 10:36:33;;;;;;;0.60;0.60;;;;;;;12.86;100.00;101145.88;4988246;28;20033;-69
2024/01/26 10:39:01;;;;;;;0.60;0.60;;;;;;;12.87;100.00;101149.38;4994508;28;20026;-69
2024/01/26 10:41:29;;;;;;;0.50;0.50;;;;;;;12.90;100.00;101152.88;5007381;28;20069;-69
2024/01/26 10:43:56;;;;;;;0.60;0.60;;;;;;;12.91;100.00;101151.97;5007279;28;20040;-69
2024/01/26 10:46:24;;;;;;;0.60;0.60;;;;;;;12.89;100.00;101143.13;5008716;28;20036;-69
2024/01/26 10:48:51;;;;;;;0.60;0.60;;;;;;;12.89;100.00;101140.44;5006993;28;20040;-69
2024/01/26 10:51:18;;;;;;;0.60;0.60;;;;;;;12.83;100.00;101153.91;5007516;28;20688;-69
2024/01/26 10:53:46;;;;;;;0.60;0.60;;;;;;;12.57;100.00;101120.78;4988033;28;20091;-69
2024/01/26 10:56:11;;;;;;;0.50;0.50;;;;;;;12.69;100.00;101157.84;5007715;28;20494;-70
2024/01/26 10:58:37;;;;;;;0.50;0.50;;;;;;;12.64;100.00;101149.94;4989983;28;20808;-69
2024/01/26 11:01:05;;;;;;;0.60;0.60;;;;;;;12.44;100.00;101133.50;5009154;28;20113;-70
2024/01/26 11:03:31;;;;;;;0.60;0.60;;;;;;;12.57;100.00;101144.78;5005845;28;20033;-69
2024/01/26 11:05:56;;;;;;;0.60;0.60;;;;;;;12.52;100.00;101131.53;5008857;28;20052;-69
2024/01/26 11:08:26;;;;;;;0.60;0.60;;;;;;;12.50;100.00;101122.69;4985322;28;20026;-70
2024/01/26 11:10:54;;;;;;;0.52;0.52;;;;;;;12.57;100.00;101121.63;4988110;28;20496;-70